createdAt,value
2022-12-25T00:00:05.366Z,9
2022-12-25T00:03:05.365Z,9
2022-12-25T00:06:05.323Z,9
2022-12-25T00:09:05.370Z,9
2022-12-25T00:12:05.347Z,9
2022-12-25T00:18:05.373Z,9
2022-12-25T00:24:05.382Z,9
2022-12-25T00:27:05.353Z,9
2022-12-25T00:30:05.410Z,9
2022-12-25T00:33:05.385Z,9
2022-12-25T00:36:05.361Z,9
2022-12-25T00:39:05.373Z,9
2022-12-25T00:42:05.366Z,9
2022-12-25T00:45:05.401Z,9
2022-12-25T00:48:05.380Z,9
2022-12-25T00:54:05.410Z,9
2022-12-25T00:57:05.370Z,9
2022-12-25T01:00:05.389Z,9
2022-12-25T01:03:05.423Z,9.1
2022-12-25T01:06:05.444Z,9.1
2022-12-25T01:09:05.377Z,9.1
2022-12-25T01:12:05.386Z,9.1
2022-12-25T01:15:05.369Z,9
2022-12-25T01:18:07.851Z,9
2022-12-25T01:21:05.378Z,9
2022-12-25T01:24:05.394Z,9
2022-12-25T01:27:05.381Z,9
2022-12-25T01:30:05.399Z,9
2022-12-25T01:33:05.396Z,9
2022-12-25T01:36:05.362Z,9
2022-12-25T01:39:05.379Z,9
2022-12-25T01:42:05.385Z,9
2022-12-25T01:45:05.417Z,9
2022-12-25T01:48:05.415Z,9
2022-12-25T01:51:05.386Z,9
2022-12-25T01:54:05.394Z,9
2022-12-25T01:57:05.390Z,9
2022-12-25T02:00:05.404Z,9
2022-12-25T02:03:05.413Z,9
2022-12-25T02:06:05.398Z,9
2022-12-25T02:09:05.409Z,9
2022-12-25T02:12:05.387Z,9
2022-12-25T02:15:06.183Z,9
2022-12-25T02:18:05.411Z,9
2022-12-25T02:21:05.385Z,9
2022-12-25T02:24:05.388Z,9
2022-12-25T02:27:05.396Z,9
2022-12-25T02:30:05.410Z,9
2022-12-25T02:33:05.396Z,9
2022-12-25T02:36:05.432Z,9
2022-12-25T02:39:05.397Z,9
2022-12-25T02:42:05.389Z,9
2022-12-25T02:45:05.414Z,9
2022-12-25T02:48:05.391Z,9
2022-12-25T02:51:05.392Z,9
2022-12-25T02:54:05.397Z,9
2022-12-25T02:57:05.390Z,9
2022-12-25T03:00:05.448Z,9
2022-12-25T03:03:05.429Z,9
2022-12-25T03:06:05.414Z,9
2022-12-25T03:09:05.416Z,9
2022-12-25T03:12:05.423Z,9
2022-12-25T03:15:05.421Z,9
2022-12-25T03:18:05.489Z,9
2022-12-25T03:21:05.415Z,9
2022-12-25T03:24:05.419Z,9
2022-12-25T03:27:05.415Z,9
2022-12-25T03:30:05.469Z,9
2022-12-25T03:33:17.858Z,9
2022-12-25T03:36:05.431Z,9
2022-12-25T03:39:05.425Z,9
2022-12-25T03:42:05.485Z,9
2022-12-25T03:45:05.446Z,9
2022-12-25T03:48:05.417Z,9
2022-12-25T03:51:05.427Z,9
2022-12-25T03:54:05.435Z,9
2022-12-25T03:57:05.418Z,9
2022-12-25T04:00:05.472Z,9
2022-12-25T04:03:05.469Z,9
2022-12-25T04:06:05.429Z,9
2022-12-25T04:09:05.425Z,9
2022-12-25T04:12:05.424Z,9
2022-12-25T04:18:05.420Z,9
2022-12-25T04:21:05.426Z,9
2022-12-25T04:24:05.424Z,9
2022-12-25T04:27:05.425Z,8.9
2022-12-25T04:30:05.460Z,8.9
2022-12-25T04:33:05.424Z,8.9
2022-12-25T04:36:05.438Z,8.9
2022-12-25T04:39:05.439Z,8.9
2022-12-25T04:42:05.427Z,8.9
2022-12-25T04:45:05.462Z,8.9
2022-12-25T04:48:05.423Z,8.9
2022-12-25T04:51:05.441Z,8.9
2022-12-25T04:54:05.427Z,8.9
2022-12-25T04:57:05.426Z,8.9
2022-12-25T05:00:05.483Z,8.9
2022-12-25T05:03:05.514Z,8.9
2022-12-25T05:06:05.425Z,8.9
2022-12-25T05:09:05.429Z,8.9
2022-12-25T05:12:05.426Z,8.9
2022-12-25T05:15:05.458Z,8.9
2022-12-25T05:18:05.427Z,8.9
2022-12-25T05:21:05.431Z,8.9
2022-12-25T05:24:05.445Z,8.9
2022-12-25T05:27:05.441Z,8.9
2022-12-25T05:30:05.456Z,8.9
2022-12-25T05:33:05.432Z,8.9
2022-12-25T05:36:05.436Z,8.9
2022-12-25T05:39:05.440Z,8.9
2022-12-25T05:42:05.432Z,8.9
2022-12-25T05:45:05.475Z,8.9
2022-12-25T05:48:05.454Z,8.9
2022-12-25T05:51:05.465Z,8.9
2022-12-25T05:54:05.444Z,8.9
2022-12-25T05:57:05.469Z,8.9
2022-12-25T06:00:05.515Z,8.9
2022-12-25T06:03:05.523Z,8.9
2022-12-25T06:06:05.477Z,8.9
2022-12-25T06:09:05.485Z,8.8
2022-12-25T06:12:05.479Z,8.8
2022-12-25T06:15:05.513Z,8.8
2022-12-25T06:18:05.494Z,8.8
2022-12-25T06:21:05.492Z,8.8
2022-12-25T06:24:05.552Z,8.8
2022-12-25T06:27:05.503Z,8.8
2022-12-25T06:30:05.538Z,8.8
2022-12-25T06:33:05.494Z,8.8
2022-12-25T06:36:05.514Z,8.8
2022-12-25T06:39:05.488Z,8.8
2022-12-25T06:42:05.495Z,8.8
2022-12-25T06:45:05.756Z,8.8
2022-12-25T06:48:05.502Z,8.8
2022-12-25T06:51:05.504Z,8.8
2022-12-25T06:54:05.497Z,8.8
2022-12-25T06:57:05.505Z,8.8
2022-12-25T07:00:05.543Z,8.8
2022-12-25T07:03:05.628Z,8.8
2022-12-25T07:06:05.499Z,8.8
2022-12-25T07:09:05.520Z,8.8
2022-12-25T07:12:05.510Z,8.8
2022-12-25T07:15:05.527Z,8.8
2022-12-25T07:18:05.505Z,8.8
2022-12-25T07:21:05.510Z,8.8
2022-12-25T07:24:05.544Z,8.8
2022-12-25T07:27:05.509Z,8.8
2022-12-25T07:30:05.549Z,8.8
2022-12-25T07:33:05.516Z,8.8
2022-12-25T07:36:05.589Z,8.8
2022-12-25T07:39:05.572Z,8.8
2022-12-25T07:42:05.511Z,8.8
2022-12-25T07:45:05.530Z,8.8
2022-12-25T07:48:06.822Z,8.8
2022-12-25T07:51:05.509Z,8.8
2022-12-25T07:54:05.510Z,8.8
2022-12-25T07:57:05.529Z,8.8
2022-12-25T08:00:05.540Z,8.8
2022-12-25T08:03:05.751Z,8.8
2022-12-25T08:06:05.546Z,8.8
2022-12-25T08:09:05.509Z,8.9
2022-12-25T08:12:05.506Z,8.9
2022-12-25T08:15:05.738Z,8.9
2022-12-25T08:18:05.521Z,8.9
2022-12-25T08:21:05.534Z,8.9
2022-12-25T08:24:05.532Z,8.9
2022-12-25T08:27:05.525Z,8.9
2022-12-25T08:30:05.565Z,8.9
2022-12-25T08:33:05.529Z,9
2022-12-25T08:36:05.546Z,9
2022-12-25T08:39:05.540Z,9
2022-12-25T08:42:05.533Z,9
2022-12-25T08:45:05.525Z,9
2022-12-25T08:48:05.537Z,9
2022-12-25T08:51:05.522Z,9
2022-12-25T08:54:05.537Z,9
2022-12-25T08:57:05.537Z,9
2022-12-25T09:00:05.533Z,9
2022-12-25T09:03:05.654Z,9
2022-12-25T09:06:05.541Z,9
2022-12-25T09:09:05.523Z,9
2022-12-25T09:12:05.536Z,9
2022-12-25T09:18:05.536Z,9
2022-12-25T09:21:05.535Z,9
2022-12-25T09:24:05.537Z,9
2022-12-25T09:27:05.539Z,9
2022-12-25T09:30:05.537Z,9
2022-12-25T09:33:05.536Z,9
2022-12-25T09:36:05.526Z,9
2022-12-25T09:39:05.535Z,9
2022-12-25T09:42:05.533Z,9
2022-12-25T09:45:05.534Z,9
2022-12-25T09:48:05.530Z,9
2022-12-25T09:51:05.544Z,9.1
2022-12-25T09:54:05.531Z,9.1
2022-12-25T09:57:05.526Z,9.1
2022-12-25T10:00:05.542Z,9.1
2022-12-25T10:03:05.701Z,9.1
2022-12-25T10:06:05.535Z,9.1
2022-12-25T10:09:05.537Z,9.1
2022-12-25T10:12:05.553Z,9.1
2022-12-25T10:15:05.537Z,9.1
2022-12-25T10:18:05.540Z,9.2
2022-12-25T10:21:09.437Z,9.2
2022-12-25T10:24:05.564Z,9.2
2022-12-25T10:27:05.559Z,9.2
2022-12-25T10:30:05.578Z,9.3
2022-12-25T10:33:05.565Z,9.3
2022-12-25T10:36:05.571Z,9.3
2022-12-25T10:39:05.554Z,9.3
2022-12-25T10:42:05.559Z,9.4
2022-12-25T10:45:05.559Z,9.4
2022-12-25T10:48:07.578Z,9.4
2022-12-25T10:51:05.570Z,9.4
2022-12-25T10:54:05.561Z,9.4
2022-12-25T10:57:05.563Z,9.5
2022-12-25T11:00:05.571Z,9.5
2022-12-25T11:03:05.757Z,9.5
2022-12-25T11:06:05.576Z,9.5
2022-12-25T11:09:05.570Z,9.5
2022-12-25T11:12:05.560Z,9.6
2022-12-25T11:15:05.626Z,9.6
2022-12-25T11:18:05.568Z,9.6
2022-12-25T11:21:05.571Z,9.6
2022-12-25T11:24:05.587Z,9.6
2022-12-25T11:27:05.566Z,9.7
2022-12-25T11:30:07.020Z,9.7
2022-12-25T11:33:05.573Z,9.7
2022-12-25T11:36:05.572Z,9.7
2022-12-25T11:39:05.575Z,9.7
2022-12-25T11:42:05.572Z,9.7
2022-12-25T11:45:05.581Z,9.7
2022-12-25T11:48:05.592Z,9.8
2022-12-25T11:51:05.585Z,9.8
2022-12-25T11:54:05.609Z,9.8
2022-12-25T11:57:05.584Z,9.8
2022-12-25T12:00:05.592Z,9.8
2022-12-25T12:03:05.681Z,9.8
2022-12-25T12:06:05.591Z,9.8
2022-12-25T12:09:05.585Z,9.8
2022-12-25T12:12:05.596Z,9.9
2022-12-25T12:15:05.588Z,9.9
2022-12-25T12:18:05.599Z,9.9
2022-12-25T12:21:05.589Z,9.9
2022-12-25T12:24:05.590Z,9.9
2022-12-25T12:27:05.594Z,9.9
2022-12-25T12:30:05.586Z,9.9
2022-12-25T12:33:05.592Z,9.9
2022-12-25T12:36:05.589Z,9.9
2022-12-25T12:39:05.607Z,9.9
2022-12-25T12:42:05.587Z,9.9
2022-12-25T12:45:05.593Z,9.9
2022-12-25T12:48:05.593Z,10
2022-12-25T12:54:05.598Z,10
2022-12-25T12:57:05.606Z,10
2022-12-25T13:00:10.008Z,10
2022-12-25T13:03:05.621Z,10
2022-12-25T13:06:05.591Z,10
2022-12-25T13:09:05.598Z,10
2022-12-25T13:12:05.615Z,10
2022-12-25T13:15:05.620Z,10
2022-12-25T13:18:05.629Z,10
2022-12-25T13:21:05.616Z,10
2022-12-25T13:24:05.625Z,10
2022-12-25T13:27:05.621Z,10
2022-12-25T13:30:05.617Z,10
2022-12-25T13:33:05.688Z,10
2022-12-25T13:36:05.605Z,10
2022-12-25T13:39:05.623Z,10.1
2022-12-25T13:42:05.768Z,10.1
2022-12-25T13:48:05.608Z,10
2022-12-25T13:51:05.617Z,10
2022-12-25T13:54:05.624Z,10
2022-12-25T13:57:05.615Z,10
2022-12-25T14:00:05.617Z,10
2022-12-25T14:06:05.621Z,10
2022-12-25T14:09:05.622Z,10
2022-12-25T14:12:05.627Z,10
2022-12-25T14:15:05.618Z,10
2022-12-25T14:18:05.621Z,10
2022-12-25T14:21:05.619Z,9.9
2022-12-25T14:24:05.617Z,9.9
2022-12-25T14:27:05.626Z,9.9
2022-12-25T14:30:05.656Z,9.9
2022-12-25T14:33:05.621Z,9.9
2022-12-25T14:36:05.626Z,9.9
2022-12-25T14:39:05.643Z,9.9
2022-12-25T14:42:05.632Z,9.9
2022-12-25T14:45:05.631Z,9.9
2022-12-25T14:48:05.621Z,9.9
2022-12-25T14:51:05.633Z,9.8
2022-12-25T14:54:05.645Z,9.8
2022-12-25T14:57:05.626Z,9.8
2022-12-25T15:00:05.725Z,9.8
2022-12-25T15:03:05.759Z,9.8
2022-12-25T15:06:05.655Z,9.8
2022-12-25T15:09:05.627Z,9.8
2022-12-25T15:12:05.631Z,9.8
2022-12-25T15:15:05.637Z,9.8
2022-12-25T15:18:05.631Z,9.7
2022-12-25T15:21:05.645Z,9.7
2022-12-25T15:24:05.631Z,9.7
2022-12-25T15:27:05.657Z,9.7
2022-12-25T15:30:10.320Z,9.7
2022-12-25T15:33:05.632Z,9.7
2022-12-25T15:36:05.630Z,9.7
2022-12-25T15:39:05.629Z,9.7
2022-12-25T15:42:05.633Z,9.7
2022-12-25T15:45:05.637Z,9.6
2022-12-25T15:48:05.636Z,9.6
2022-12-25T15:51:05.635Z,9.6
2022-12-25T15:54:05.629Z,9.6
2022-12-25T15:57:05.634Z,9.6
2022-12-25T16:00:05.630Z,9.6
2022-12-25T16:03:05.810Z,9.6
2022-12-25T16:06:05.671Z,9.5
2022-12-25T16:09:05.650Z,9.5
2022-12-25T16:12:05.631Z,9.5
2022-12-25T16:15:05.633Z,9.5
2022-12-25T16:21:05.634Z,9.4
2022-12-25T16:24:05.640Z,9.4
2022-12-25T16:27:05.642Z,9.4
2022-12-25T16:30:05.637Z,9.4
2022-12-25T16:33:05.628Z,9.4
2022-12-25T16:36:05.629Z,9.4
2022-12-25T16:39:05.639Z,9.4
2022-12-25T16:42:05.637Z,9.3
2022-12-25T16:45:05.631Z,9.3
2022-12-25T16:51:05.644Z,9.3
2022-12-25T16:54:05.634Z,9.3
2022-12-25T16:57:05.636Z,9.3
2022-12-25T17:00:05.641Z,9.3
2022-12-25T17:03:05.753Z,9.3
2022-12-25T17:06:05.634Z,9.3
2022-12-25T17:09:05.638Z,9.3
2022-12-25T17:12:05.645Z,9.2
2022-12-25T17:15:05.627Z,9.2
2022-12-25T17:18:05.634Z,9.2
2022-12-25T17:21:05.627Z,9.2
2022-12-25T17:24:05.645Z,9.2
2022-12-25T17:27:05.638Z,9.2
2022-12-25T17:30:05.641Z,9.2
2022-12-25T17:33:05.667Z,9.2
2022-12-25T17:36:05.645Z,9.2
2022-12-25T17:39:05.648Z,9.2
2022-12-25T17:42:05.632Z,9.2
2022-12-25T17:45:05.649Z,9.2
2022-12-25T17:48:05.644Z,9.2
2022-12-25T17:51:05.645Z,9.2
2022-12-25T17:54:05.640Z,9.1
2022-12-25T17:57:05.651Z,9.1
2022-12-25T18:00:05.646Z,9.1
2022-12-25T18:03:11.028Z,9.1
2022-12-25T18:06:05.642Z,9.1
2022-12-25T18:09:05.647Z,9.1
2022-12-25T18:12:05.669Z,9.1
2022-12-25T18:15:05.656Z,9.1
2022-12-25T18:18:05.644Z,9.1
2022-12-25T18:21:05.648Z,9.2
2022-12-25T18:24:05.659Z,9.2
2022-12-25T18:30:05.656Z,9.3
2022-12-25T18:33:05.653Z,9.3
2022-12-25T18:39:05.646Z,9.3
2022-12-25T18:42:05.637Z,9.4
2022-12-25T18:45:05.647Z,9.4
2022-12-25T18:48:05.645Z,9.4
2022-12-25T18:51:05.655Z,9.5
2022-12-25T18:54:05.643Z,9.5
2022-12-25T18:57:07.371Z,9.6
2022-12-25T19:00:05.671Z,9.6
2022-12-25T19:03:05.809Z,9.6
2022-12-25T19:06:05.649Z,9.6
2022-12-25T19:09:05.653Z,9.6
2022-12-25T19:12:05.655Z,9.6
2022-12-25T19:15:05.661Z,9.6
2022-12-25T19:18:05.654Z,9.7
2022-12-25T19:21:05.649Z,9.7
2022-12-25T19:24:05.644Z,9.7
2022-12-25T19:27:05.639Z,9.7
2022-12-25T19:30:05.651Z,9.7
2022-12-25T19:33:05.663Z,9.7
2022-12-25T19:39:05.649Z,9.7
2022-12-25T19:42:05.646Z,9.7
2022-12-25T19:48:05.651Z,9.8
2022-12-25T19:51:05.648Z,9.8
2022-12-25T19:54:05.673Z,9.8
2022-12-25T19:57:05.651Z,9.8
2022-12-25T20:00:05.648Z,9.8
2022-12-25T20:03:05.739Z,9.8
2022-12-25T20:06:05.659Z,9.8
2022-12-25T20:09:05.651Z,9.8
2022-12-25T20:12:05.652Z,9.8
2022-12-25T20:15:05.662Z,9.8
2022-12-25T20:18:05.660Z,9.8
2022-12-25T20:21:05.652Z,9.8
2022-12-25T20:24:05.660Z,9.8
2022-12-25T20:27:05.649Z,9.8
2022-12-25T20:30:05.650Z,9.8
2022-12-25T20:33:05.673Z,9.8
2022-12-25T20:36:05.655Z,9.8
2022-12-25T20:39:05.653Z,9.8
2022-12-25T20:42:05.667Z,9.8
2022-12-25T20:45:05.649Z,9.8
2022-12-25T20:51:05.664Z,9.9
2022-12-25T20:54:05.660Z,9.9
2022-12-25T20:57:05.663Z,9.9
2022-12-25T21:00:05.659Z,9.9
2022-12-25T21:03:05.822Z,9.9
2022-12-25T21:06:05.668Z,9.9
2022-12-25T21:09:05.666Z,9.9
2022-12-25T21:12:05.675Z,9.9
2022-12-25T21:15:08.958Z,9.9
2022-12-25T21:18:05.671Z,9.9
2022-12-25T21:21:05.679Z,9.9
2022-12-25T21:24:05.668Z,9.9
2022-12-25T21:27:05.659Z,9.9
2022-12-25T21:30:14.119Z,9.9
2022-12-25T21:33:05.711Z,9.9
2022-12-25T21:36:05.672Z,9.9
2022-12-25T21:39:05.684Z,9.9
2022-12-25T21:42:05.676Z,9.9
2022-12-25T21:45:05.671Z,9.9
2022-12-25T21:48:05.668Z,10
2022-12-25T21:51:05.669Z,10
2022-12-25T21:54:05.682Z,10
2022-12-25T21:57:05.662Z,10
2022-12-25T22:00:05.667Z,10
2022-12-25T22:03:05.809Z,10
2022-12-25T22:06:05.662Z,10
2022-12-25T22:09:05.669Z,10
2022-12-25T22:12:05.674Z,10
2022-12-25T22:15:05.683Z,10
2022-12-25T22:18:05.660Z,10
2022-12-25T22:21:05.662Z,10
2022-12-25T22:24:05.674Z,10
2022-12-25T22:27:05.664Z,10
2022-12-25T22:30:05.666Z,10
2022-12-25T22:33:05.668Z,10
2022-12-25T22:36:05.679Z,10
2022-12-25T22:39:05.687Z,10
2022-12-25T22:42:05.667Z,10
2022-12-25T22:45:05.694Z,10
2022-12-25T22:48:05.679Z,10.1
2022-12-25T22:51:05.673Z,10.1
2022-12-25T22:54:05.667Z,10.1
2022-12-25T22:57:05.676Z,10.1
2022-12-25T23:00:05.677Z,10.1
2022-12-25T23:03:05.764Z,10.1
2022-12-25T23:06:05.676Z,10.1
2022-12-25T23:09:05.668Z,10.1
2022-12-25T23:12:05.672Z,10.1
2022-12-25T23:15:05.687Z,10.1
2022-12-25T23:21:05.684Z,10.1
2022-12-25T23:24:05.674Z,10.1
2022-12-25T23:27:05.678Z,10.1
2022-12-25T23:30:05.676Z,10.1
2022-12-25T23:33:05.674Z,10.1
2022-12-25T23:36:05.676Z,10.1
2022-12-25T23:39:09.886Z,10.1
2022-12-25T23:42:05.687Z,10.1
2022-12-25T23:45:05.855Z,10.1
2022-12-25T23:48:05.684Z,10.2
2022-12-25T23:51:05.685Z,10.2
2022-12-25T23:54:05.690Z,10.2
2022-12-25T23:57:05.703Z,10.2
